Time;durP1;ratioP1;P1;durP2;ratioP2;P2;SDS_P1;SDS_P2;PMS_P1;PMS_P2;Temp;Humidity;BMP_temperature;BMP_pressure;BME280_temperature;BME280_humidity;BME280_pressure;Samples;Min_cycle;Max_cycle;Signal;HPM_P1;HPM_P2
2022/06/12 00:00:33;;;;;;;13.10;4.68;;;12.50;99.90;;;;;;5052410;28;20121;-80
2022/06/12 00:03:01;;;;;;;15.25;5.18;;;12.50;99.90;;;;;;5028245;28;20032;-80
2022/06/12 00:05:32;;;;;;;13.43;4.90;;;12.50;99.90;;;;;;5054206;28;20051;-80
2022/06/12 00:07:58;;;;;;;15.13;5.43;;;12.40;99.90;;;;;;5056183;28;20844;-80
2022/06/12 00:10:24;;;;;;;13.30;5.93;;;12.40;99.90;;;;;;5041460;28;20040;-80
2022/06/12 00:12:51;;;;;;;12.77;6.13;;;12.30;99.90;;;;;;5056516;28;20048;-80
2022/06/12 00:15:20;;;;;;;11.93;4.93;;;12.30;99.90;;;;;;5050453;28;20528;-80
2022/06/12 00:17:47;;;;;;;14.48;5.68;;;12.40;99.90;;;;;;5021565;28;20673;-80
2022/06/12 00:20:15;;;;;;;11.00;5.45;;;12.30;99.90;;;;;;5069055;28;20048;-80
2022/06/12 00:22:43;;;;;;;13.00;5.15;;;12.30;99.90;;;;;;5035731;28;20045;-80
2022/06/12 00:25:12;;;;;;;11.38;5.28;;;12.30;99.90;;;;;;5041503;28;20044;-80
2022/06/12 00:27:39;;;;;;;10.85;4.80;;;12.30;99.90;;;;;;5054490;28;20058;-80
2022/06/12 00:30:08;;;;;;;10.10;4.68;;;12.30;99.90;;;;;;5037653;28;20056;-80
2022/06/12 00:32:35;;;;;;;13.07;5.07;;;12.20;99.90;;;;;;5055071;28;20044;-80
2022/06/12 00:35:02;;;;;;;11.85;4.90;;;12.20;99.90;;;;;;5058079;28;20044;-81
2022/06/12 00:37:29;;;;;;;9.93;4.75;;;12.20;99.90;;;;;;5077687;28;20044;-80
2022/06/12 00:39:56;;;;;;;10.65;4.95;;;12.20;99.90;;;;;;5023579;28;20040;-81
2022/06/12 00:42:57;;;;;;;13.43;4.97;;;12.20;99.90;;;;;;5071797;28;20055;-80
2022/06/12 00:45:38;;;;;;;11.85;5.03;;;12.30;99.90;;;;;;5049006;28;20598;-81
2022/06/12 00:48:12;;;;;;;12.48;5.10;;;12.20;99.90;;;;;;5039846;28;20097;-81
2022/06/12 00:50:47;;;;;;;10.75;4.80;;;12.20;99.90;;;;;;5057669;28;20820;-80
2022/06/12 00:53:22;;;;;;;14.00;5.50;;;12.20;99.90;;;;;;5074601;28;20442;-81
2022/06/12 00:56:03;;;;;;;12.32;5.30;;;12.10;99.90;;;;;;5051295;28;20781;-81
2022/06/12 00:58:33;;;;;;;14.33;5.73;;;12.20;99.90;;;;;;5059318;28;20054;-81
2022/06/12 01:01:04;;;;;;;8.88;5.10;;;12.10;99.90;;;;;;5077914;28;20075;-81
2022/06/12 01:03:30;;;;;;;13.67;5.27;;;12.10;99.90;;;;;;5057168;28;20602;-81
2022/06/12 01:08:58;;;;;;;10.98;4.93;;;12.00;99.90;;;;;;5025796;28;20040;-81
2022/06/12 01:11:25;;;;;;;9.80;4.55;;;12.00;99.90;;;;;;5033638;28;20154;-80
2022/06/12 01:13:52;;;;;;;9.70;4.85;;;12.00;99.90;;;;;;5061333;28;20050;-80
2022/06/12 01:16:23;;;;;;;11.60;5.40;;;12.00;99.90;;;;;;5045481;28;20488;-80
2022/06/12 01:18:54;;;;;;;8.60;5.22;;;12.00;99.90;;;;;;5029293;28;20048;-80
2022/06/12 01:21:51;;;;;;;14.18;5.38;;;12.00;99.90;;;;;;5055869;28;20051;-80
2022/06/12 01:24:32;;;;;;;11.60;5.47;;;12.00;99.90;;;;;;5059599;28;20662;-81
2022/06/12 01:27:04;;;;;;;12.13;5.03;;;12.00;99.90;;;;;;5063693;28;20531;-80
2022/06/12 01:29:58;;;;;;;13.35;4.80;;;11.90;99.90;;;;;;5060359;28;20048;-81
2022/06/12 01:32:37;;;;;;;12.57;5.18;;;11.90;99.90;;;;;;5061177;28;20054;-81
2022/06/12 01:35:19;;;;;;;9.73;5.03;;;11.90;99.90;;;;;;5058736;28;20056;-80
2022/06/12 01:38:09;;;;;;;11.48;5.50;;;11.90;99.90;;;;;;5064774;28;20063;-80
2022/06/12 01:40:52;;;;;;;11.02;4.80;;;11.90;99.90;;;;;;5021467;28;20070;-80
2022/06/12 01:43:57;;;;;;;15.48;6.20;;;11.90;99.90;;;;;;5041100;28;20050;-81
2022/06/12 01:46:33;;;;;;;15.32;6.18;;;11.80;99.90;;;;;;5027194;28;20059;-81
2022/06/12 01:49:05;;;;;;;7.85;4.60;;;11.80;99.90;;;;;;5058879;28;20097;-81
2022/06/12 01:51:37;;;;;;;11.27;4.90;;;11.80;99.90;;;;;;5045948;28;20045;-81
2022/06/12 01:54:36;;;;;;;7.72;5.28;;;11.70;99.90;;;;;;5055322;28;20051;-81
2022/06/12 01:57:07;;;;;;;11.70;4.85;;;11.70;99.90;;;;;;5022810;28;20129;-81
2022/06/12 01:59:53;;;;;;;9.88;4.82;;;11.70;99.90;;;;;;5046223;28;20131;-81
2022/06/12 02:02:36;;;;;;;10.80;5.22;;;11.70;99.90;;;;;;5093918;28;20174;-81
2022/06/12 02:05:14;;;;;;;10.75;5.00;;;11.70;99.90;;;;;;5095287;27;20381;-81
2022/06/12 02:07:52;;;;;;;9.70;5.00;;;11.70;99.90;;;;;;5028497;28;20487;-80
2022/06/12 02:10:30;;;;;;;10.80;4.68;;;11.60;99.90;;;;;;5069030;28;20131;-81
2022/06/12 02:13:14;;;;;;;9.18;5.22;;;11.60;99.90;;;;;;5062916;28;20974;-81
2022/06/12 02:15:51;;;;;;;7.30;4.78;;;11.60;99.90;;;;;;5043095;28;20048;-81
2022/06/12 02:18:50;;;;;;;10.27;4.32;;;11.60;99.90;;;;;;5041489;28;20117;-80
2022/06/12 02:21:23;;;;;;;7.53;4.20;;;11.60;99.90;;;;;;5013065;28;20045;-81
2022/06/12 02:24:03;;;;;;;11.77;4.22;;;11.50;99.90;;;;;;5063605;28;20051;-81
2022/06/12 02:26:57;;;;;;;11.90;5.03;;;11.50;99.90;;;;;;5059800;28;20040;-81
2022/06/12 02:29:26;;;;;;;9.40;4.60;;;11.50;99.90;;;;;;5057863;28;20048;-81
2022/06/12 02:31:55;;;;;;;13.35;5.20;;;11.50;99.90;;;;;;5043498;28;20056;-81
2022/06/12 02:34:33;;;;;;;8.40;4.70;;;11.40;99.90;;;;;;5044406;28;20138;-81
2022/06/12 02:37:09;;;;;;;13.10;5.10;;;11.50;99.90;;;;;;5060096;28;20419;-81
2022/06/12 02:39:44;;;;;;;7.95;4.45;;;11.40;99.90;;;;;;5057582;28;20036;-81
2022/06/12 02:42:18;;;;;;;13.27;4.97;;;11.50;99.90;;;;;;5058206;28;20040;-81
2022/06/12 02:44:44;;;;;;;6.75;4.25;;;11.40;99.90;;;;;;5074443;28;20062;-80
2022/06/12 02:47:15;;;;;;;10.63;5.03;;;11.40;99.90;;;;;;5058186;28;20755;-81
2022/06/12 02:49:44;;;;;;;8.45;4.82;;;11.40;99.90;;;;;;5041657;28;20048;-81
2022/06/12 02:52:28;;;;;;;12.20;5.00;;;11.40;99.90;;;;;;5042135;28;20040;-81
2022/06/12 02:55:10;;;;;;;7.70;4.15;;;11.40;99.90;;;;;;5045830;28;20059;-81
2022/06/12 02:57:40;;;;;;;10.43;4.70;;;11.30;99.90;;;;;;5040938;28;20041;-81
2022/06/12 03:00:06;;;;;;;10.70;5.47;;;11.30;99.90;;;;;;5039750;28;20385;-81
2022/06/12 03:02:41;;;;;;;11.60;5.30;;;11.30;99.90;;;;;;5042709;28;20036;-81
2022/06/12 03:05:16;;;;;;;10.50;4.38;;;11.20;99.90;;;;;;5042441;28;20626;-81
2022/06/12 03:07:42;;;;;;;10.95;4.95;;;11.20;99.90;;;;;;5054991;28;20408;-81
2022/06/12 03:10:14;;;;;;;10.00;4.68;;;11.20;99.90;;;;;;5035706;28;20058;-81
2022/06/12 03:12:40;;;;;;;10.00;4.75;;;11.20;99.90;;;;;;5058971;28;20039;-79
2022/06/12 03:15:11;;;;;;;8.27;4.53;;;11.10;99.90;;;;;;5023058;28;20048;-82
2022/06/12 03:17:37;;;;;;;9.68;5.18;;;11.10;99.90;;;;;;5044537;28;20036;-81
2022/06/12 03:20:08;;;;;;;15.52;5.95;;;11.10;99.90;;;;;;5038358;28;20047;-81
2022/06/12 03:23:10;;;;;;;11.23;5.28;;;11.10;99.90;;;;;;4995471;28;20041;-82
2022/06/12 03:25:49;;;;;;;8.65;5.00;;;11.20;99.90;;;;;;5057022;28;20730;-82
2022/06/12 03:28:23;;;;;;;11.55;4.75;;;11.20;99.90;;;;;;5019189;28;20400;-82
2022/06/12 03:30:59;;;;;;;10.57;5.15;;;11.20;99.90;;;;;;5019715;28;20050;-81
2022/06/12 03:33:38;;;;;;;10.73;4.63;;;11.20;99.90;;;;;;5043377;28;20757;-79
2022/06/12 03:36:08;;;;;;;12.20;5.13;;;11.20;99.90;;;;;;5068486;28;20053;-80
2022/06/12 03:38:47;;;;;;;9.38;4.75;;;11.20;99.90;;;;;;5056306;28;20144;-79
2022/06/12 03:41:38;;;;;;;13.23;4.88;;;11.30;99.90;;;;;;5057862;28;20097;-80
2022/06/12 03:44:23;;;;;;;7.00;4.47;;;11.20;99.90;;;;;;5041065;28;20040;-82
2022/06/12 03:46:56;;;;;;;8.88;4.68;;;11.20;99.90;;;;;;5059381;28;20572;-80
2022/06/12 03:49:39;;;;;;;9.02;4.75;;;11.30;99.90;;;;;;5022362;28;20091;-80
2022/06/12 03:52:14;;;;;;;10.65;4.80;;;11.30;99.90;;;;;;5072347;28;20735;-80
2022/06/12 03:54:53;;;;;;;9.57;4.50;;;11.30;99.90;;;;;;5072518;28;20115;-80
2022/06/12 03:57:52;;;;;;;9.15;4.25;;;11.40;99.90;;;;;;5053051;28;20055;-81
2022/06/12 04:00:30;;;;;;;10.25;5.10;;;11.40;99.90;;;;;;5040454;28;20052;-80
2022/06/12 04:03:15;;;;;;;14.35;4.90;;;11.40;99.90;;;;;;5059342;28;20043;-80
2022/06/12 04:05:54;;;;;;;8.70;4.80;;;11.40;99.90;;;;;;5056615;28;20052;-80
2022/06/12 04:08:25;;;;;;;12.30;4.30;;;11.50;99.90;;;;;;5022213;28;20058;-81
2022/06/12 04:10:53;;;;;;;15.13;4.53;;;11.50;99.90;;;;;;5051434;28;20044;-81
2022/06/12 04:13:22;;;;;;;8.05;3.78;;;11.50;99.90;;;;;;5068497;28;20048;-80
2022/06/12 04:15:54;;;;;;;11.15;4.63;;;11.60;99.90;;;;;;5034743;28;20457;-80
2022/06/12 04:18:21;;;;;;;11.27;4.18;;;11.60;99.90;;;;;;5042257;28;20047;-80
2022/06/12 04:20:55;;;;;;;8.13;3.92;;;11.70;99.90;;;;;;5026093;28;20055;-80
2022/06/12 04:23:45;;;;;;;13.43;4.72;;;11.80;99.90;;;;;;5053434;28;20044;-80
2022/06/12 04:26:39;;;;;;;10.80;4.50;;;11.80;99.90;;;;;;5052404;28;20036;-80
2022/06/12 04:29:11;;;;;;;10.43;3.85;;;11.90;99.90;;;;;;5049935;28;20036;-80
2022/06/12 04:31:39;;;;;;;13.55;4.15;;;12.00;99.90;;;;;;5054726;28;20364;-80
2022/06/12 04:34:16;;;;;;;11.00;4.20;;;12.00;99.90;;;;;;5057943;28;20446;-80
2022/06/12 04:36:46;;;;;;;11.45;4.95;;;12.10;99.90;;;;;;5076256;28;20050;-81
2022/06/12 04:39:14;;;;;;;10.65;4.50;;;12.20;99.90;;;;;;5035845;28;20158;-80
2022/06/12 04:41:41;;;;;;;10.85;4.75;;;12.30;99.90;;;;;;5056894;28;20400;-80
2022/06/12 04:44:08;;;;;;;13.77;4.60;;;12.40;99.90;;;;;;5035282;28;20582;-81
2022/06/12 04:46:37;;;;;;;10.00;4.22;;;12.50;99.90;;;;;;5036209;28;20424;-80
2022/06/12 04:49:03;;;;;;;11.45;4.22;;;12.60;99.90;;;;;;5075000;28;20094;-81
2022/06/12 04:51:31;;;;;;;11.18;4.32;;;12.70;99.90;;;;;;5027410;28;20078;-79
2022/06/12 04:53:57;;;;;;;13.13;4.30;;;12.80;99.90;;;;;;5020126;28;20086;-81
2022/06/12 04:56:26;;;;;;;12.38;4.30;;;12.90;99.90;;;;;;5032330;28;20139;-81
2022/06/12 04:58:52;;;;;;;10.52;3.92;;;13.00;99.90;;;;;;5032709;28;20058;-81
2022/06/12 05:01:19;;;;;;;10.63;4.00;;;13.10;99.90;;;;;;5052326;28;20048;-81
2022/06/12 05:03:45;;;;;;;9.02;4.00;;;13.20;99.90;;;;;;5041869;28;20093;-80
2022/06/12 05:06:15;;;;;;;12.60;3.78;;;13.30;99.90;;;;;;5034734;28;20048;-80
2022/06/12 05:08:41;;;;;;;8.07;3.55;;;13.60;99.90;;;;;;5058838;28;20373;-81
2022/06/12 05:11:08;;;;;;;7.28;3.78;;;14.00;99.90;;;;;;5040509;28;20044;-81
2022/06/12 05:13:34;;;;;;;12.30;3.63;;;14.30;99.90;;;;;;5024712;28;20716;-80
2022/06/12 05:16:00;;;;;;;10.02;4.13;;;14.60;99.90;;;;;;5055734;28;20047;-80
2022/06/12 05:18:27;;;;;;;10.25;3.53;;;14.80;99.90;;;;;;5042389;28;20415;-80
2022/06/12 05:20:55;;;;;;;13.40;4.00;;;15.00;99.90;;;;;;5014433;28;20048;-81
2022/06/12 05:23:22;;;;;;;8.50;3.22;;;15.20;99.90;;;;;;5050937;28;20134;-81
2022/06/12 05:25:49;;;;;;;11.85;3.67;;;15.20;99.90;;;;;;5063523;28;20658;-81
2022/06/12 05:28:18;;;;;;;10.18;3.60;;;15.30;99.90;;;;;;5056977;28;20701;-81
2022/06/12 05:30:44;;;;;;;12.10;3.85;;;15.40;99.90;;;;;;5039677;28;20044;-81
2022/06/12 05:33:11;;;;;;;12.23;3.10;;;15.50;99.90;;;;;;5054132;28;20096;-82
2022/06/12 05:35:39;;;;;;;13.60;4.43;;;15.60;99.90;;;;;;5056284;28;20044;-80
2022/06/12 05:38:08;;;;;;;10.00;3.60;;;15.80;99.90;;;;;;5061612;28;20480;-81
2022/06/12 05:40:37;;;;;;;10.82;3.97;;;15.80;99.90;;;;;;5044335;28;20044;-80
2022/06/12 05:43:04;;;;;;;10.70;3.22;;;15.90;99.90;;;;;;5027255;28;20605;-82
2022/06/12 05:45:32;;;;;;;14.52;4.40;;;16.10;99.90;;;;;;5052471;28;20036;-81
2022/06/12 05:48:11;;;;;;;13.63;3.90;;;16.30;99.90;;;;;;5050588;28;20161;-84
2022/06/12 05:50:48;;;;;;;14.60;4.03;;;16.60;99.90;;;;;;5059085;28;20048;-81
2022/06/12 05:53:15;;;;;;;12.95;3.30;;;16.70;99.90;;;;;;5056112;28;20052;-81
2022/06/12 05:55:41;;;;;;;11.80;3.60;;;16.70;99.90;;;;;;5027040;28;20075;-79
2022/06/12 05:58:07;;;;;;;13.13;4.25;;;16.70;99.90;;;;;;5078967;28;20040;-80
2022/06/12 06:00:34;;;;;;;12.55;3.83;;;16.70;99.90;;;;;;5036926;28;20142;-78
2022/06/12 06:03:00;;;;;;;13.48;4.40;;;16.80;99.90;;;;;;5079725;28;20762;-79
2022/06/12 06:05:27;;;;;;;13.65;3.65;;;17.10;99.90;;;;;;5060514;28;20404;-77
2022/06/12 06:07:53;;;;;;;13.63;3.72;;;17.00;99.90;;;;;;5044197;28;20504;-79
2022/06/12 06:10:24;;;;;;;15.93;4.38;;;17.10;99.90;;;;;;5049609;28;20913;-79
2022/06/12 06:12:50;;;;;;;17.00;4.07;;;16.90;99.90;;;;;;5028816;28;20044;-80
2022/06/12 06:15:16;;;;;;;15.43;4.13;;;16.70;99.90;;;;;;5029570;28;20056;-79
2022/06/12 06:17:43;;;;;;;15.95;4.20;;;16.70;99.90;;;;;;5045351;28;20052;-79
2022/06/12 06:20:14;;;;;;;12.98;4.32;;;16.80;99.90;;;;;;5043338;28;20043;-79
2022/06/12 06:22:40;;;;;;;12.15;4.00;;;17.00;99.90;;;;;;5075233;28;20040;-79
2022/06/12 06:25:07;;;;;;;17.60;4.63;;;17.20;99.90;;;;;;5027532;28;20074;-79
2022/06/12 06:27:33;;;;;;;14.75;4.03;;;17.50;99.90;;;;;;5045466;28;20510;-79
2022/06/12 06:29:59;;;;;;;17.63;4.25;;;17.80;99.90;;;;;;5030121;28;20052;-80
2022/06/12 06:32:25;;;;;;;12.35;3.80;;;17.80;99.90;;;;;;5047982;28;20048;-80
2022/06/12 06:34:52;;;;;;;12.75;4.03;;;18.00;99.90;;;;;;5029834;28;20052;-80
2022/06/12 06:37:18;;;;;;;13.35;5.15;;;18.10;99.90;;;;;;5032246;28;20044;-78
2022/06/12 06:39:44;;;;;;;15.98;4.20;;;18.00;99.90;;;;;;5044368;28;20446;-79
2022/06/12 06:42:10;;;;;;;17.20;4.88;;;18.20;99.90;;;;;;5027269;28;20129;-80
2022/06/12 06:47:27;;;;;;;13.55;4.97;;;18.30;99.90;;;;;;5093661;28;20142;-79
2022/06/12 06:49:54;;;;;;;16.23;5.15;;;18.20;99.90;;;;;;5008329;28;20063;-80
2022/06/12 06:52:20;;;;;;;12.25;3.33;;;18.20;99.90;;;;;;5045301;28;20637;-79
2022/06/12 06:54:46;;;;;;;15.52;4.38;;;18.40;99.90;;;;;;5044991;28;20133;-80
2022/06/12 06:57:13;;;;;;;18.52;4.05;;;18.60;99.90;;;;;;5025192;28;20415;-80
2022/06/12 06:59:40;;;;;;;16.17;4.22;;;18.60;99.90;;;;;;5057262;28;20144;-80
2022/06/12 07:02:08;;;;;;;16.02;4.57;;;18.80;99.90;;;;;;5041269;28;20498;-80
2022/06/12 07:04:34;;;;;;;15.95;5.10;;;19.00;99.90;;;;;;5040085;28;20036;-82
2022/06/12 07:07:01;;;;;;;12.00;4.18;;;19.10;99.90;;;;;;5021830;28;20206;-79
2022/06/12 07:09:27;;;;;;;16.20;5.07;;;19.10;99.90;;;;;;5040315;28;20044;-80
2022/06/12 07:11:53;;;;;;;14.77;5.00;;;18.90;99.90;;;;;;5044254;28;20095;-77
2022/06/12 07:14:19;;;;;;;15.88;4.82;;;19.20;99.90;;;;;;5044457;28;20043;-79
2022/06/12 07:16:45;;;;;;;12.10;4.18;;;19.20;99.90;;;;;;5074364;28;20040;-79
2022/06/12 07:19:11;;;;;;;14.40;4.20;;;19.30;99.90;;;;;;5043791;28;20100;-80
2022/06/12 07:21:38;;;;;;;11.05;3.75;;;19.50;99.90;;;;;;5042529;28;20404;-81
2022/06/12 07:24:05;;;;;;;14.25;4.70;;;19.70;99.90;;;;;;5024977;28;20043;-80
2022/06/12 07:26:35;;;;;;;15.73;4.85;;;19.90;99.90;;;;;;5075936;28;21483;-80
2022/06/12 07:29:02;;;;;;;14.35;4.00;;;20.20;99.90;;;;;;5044564;28;20105;-80
2022/06/12 07:31:29;;;;;;;15.88;4.32;;;20.10;99.90;;;;;;5077413;28;20054;-80
2022/06/12 07:33:55;;;;;;;16.70;4.75;;;20.20;99.90;;;;;;5036423;28;20044;-80
2022/06/12 07:36:21;;;;;;;16.35;4.53;;;20.40;99.90;;;;;;5026633;28;20051;-79
2022/06/12 07:38:49;;;;;;;15.10;4.60;;;20.40;99.90;;;;;;5038935;28;20053;-78
2022/06/12 07:41:17;;;;;;;15.48;4.38;;;20.50;99.90;;;;;;5052762;28;20048;-76
2022/06/12 07:43:44;;;;;;;13.88;5.15;;;20.70;99.90;;;;;;5040256;28;20127;-77
2022/06/12 07:46:13;;;;;;;16.98;4.45;;;20.90;99.90;;;;;;5098615;28;20140;-77
2022/06/12 07:48:41;;;;;;;13.90;4.63;;;21.00;99.90;;;;;;5046877;28;20620;-77
2022/06/12 07:51:11;;;;;;;14.63;4.65;;;21.10;99.90;;;;;;5028592;28;20190;-78
2022/06/12 07:53:38;;;;;;;14.75;4.68;;;21.10;99.90;;;;;;5052693;28;21341;-78
2022/06/12 07:56:06;;;;;;;14.48;5.00;;;21.10;99.90;;;;;;5060094;28;20738;-78
2022/06/12 07:58:33;;;;;;;13.77;4.00;;;21.30;99.90;;;;;;5047498;28;20389;-77
2022/06/12 08:01:01;;;;;;;15.57;4.63;;;21.20;99.90;;;;;;5065808;28;20052;-78
2022/06/12 08:03:29;;;;;;;15.95;4.90;;;21.20;99.90;;;;;;5061408;28;20036;-78
2022/06/12 08:05:56;;;;;;;13.40;4.00;;;21.20;99.90;;;;;;5021380;28;20105;-77
2022/06/12 08:08:22;;;;;;;13.05;4.00;;;21.40;99.90;;;;;;5082038;28;20117;-78
2022/06/12 08:10:48;;;;;;;18.65;4.95;;;21.60;99.90;;;;;;5078624;28;20909;-78
2022/06/12 08:13:15;;;;;;;13.20;4.40;;;21.90;99.90;;;;;;5064463;28;20126;-77
2022/06/12 08:15:45;;;;;;;13.05;3.92;;;21.80;99.90;;;;;;5045418;28;20051;-78
2022/06/12 08:18:12;;;;;;;13.57;4.25;;;22.40;99.90;;;;;;5040884;28;20044;-78
2022/06/12 08:20:45;;;;;;;14.02;3.78;;;22.80;99.90;;;;;;5046626;28;20067;-79
2022/06/12 08:23:27;;;;;;;16.63;4.78;;;23.00;99.90;;;;;;5040573;28;20071;-78
2022/06/12 08:26:21;;;;;;;11.32;3.88;;;23.10;99.90;;;;;;5051580;28;20051;-78
2022/06/12 08:29:10;;;;;;;13.98;3.95;;;22.80;99.90;;;;;;5081460;28;20044;-78
2022/06/12 08:31:47;;;;;;;15.70;4.60;;;22.90;99.90;;;;;;5051717;28;20044;-77
2022/06/12 08:34:23;;;;;;;13.52;3.92;;;23.30;99.90;;;;;;5061880;28;20086;-78
2022/06/12 08:36:51;;;;;;;11.45;3.97;;;23.00;99.90;;;;;;5058996;28;20031;-78
2022/06/12 08:39:18;;;;;;;15.40;4.88;;;22.90;99.90;;;;;;5024328;28;20777;-77
2022/06/12 08:42:08;;;;;;;13.15;4.30;;;22.80;99.90;;;;;;5050663;28;20048;-76
2022/06/12 08:44:47;;;;;;;15.57;4.40;;;23.20;99.90;;;;;;5043787;28;20069;-78
2022/06/12 08:47:17;;;;;;;12.73;4.50;;;23.60;99.90;;;;;;5063344;28;20048;-78
2022/06/12 08:49:50;;;;;;;11.43;3.60;;;23.80;99.90;;;;;;5061412;28;20052;-78
2022/06/12 08:52:42;;;;;;;11.48;3.42;;;23.70;99.90;;;;;;5026499;28;20381;-78
2022/06/12 08:55:27;;;;;;;12.98;3.30;;;23.60;99.90;;;;;;5015908;28;20041;-77
2022/06/12 08:58:11;;;;;;;10.68;3.40;;;23.80;99.90;;;;;;5032255;28;20136;-77
2022/06/12 09:00:41;;;;;;;14.05;4.63;;;24.00;99.90;;;;;;5059375;28;20069;-77
2022/06/12 09:03:14;;;;;;;12.18;3.88;;;23.90;99.90;;;;;;5062448;28;20044;-77
2022/06/12 09:05:42;;;;;;;15.80;3.95;;;23.90;99.90;;;;;;5043787;28;20665;-77
2022/06/12 09:08:35;;;;;;;11.10;3.65;;;23.80;99.90;;;;;;5044769;28;20636;-78
2022/06/12 09:11:22;;;;;;;11.52;3.78;;;23.50;99.90;;;;;;5040076;28;20539;-78
2022/06/12 09:14:13;;;;;;;11.95;4.25;;;23.70;99.90;;;;;;5062513;28;20039;-78
2022/06/12 09:17:05;;;;;;;10.55;4.00;;;23.00;99.90;;;;;;5059348;28;20471;-78
2022/06/12 09:19:41;;;;;;;;;;;23.30;99.90;;;;;;5041215;28;20047;-78
2022/06/12 09:22:54;;;;;;;14.25;3.67;;;23.40;99.90;;;;;;5047394;28;20006;-78
2022/06/12 09:25:25;;;;;;;10.93;3.22;;;23.00;99.90;;;;;;5048585;28;20044;-78
2022/06/12 09:28:12;;;;;;;9.85;3.40;;;23.30;99.90;;;;;;5062971;28;21506;-78
2022/06/12 09:31:14;;;;;;;12.20;3.55;;;23.60;99.90;;;;;;5045027;28;20048;-79
2022/06/12 09:34:10;;;;;;;15.68;5.13;;;23.90;99.90;;;;;;5032390;28;20052;-76
2022/06/12 09:36:47;;;;;;;9.73;3.70;;;24.30;99.90;;;;;;5027177;28;20666;-78
2022/06/12 09:40:00;;;;;;;9.27;2.97;;;24.70;96.20;;;;;;5024983;28;20266;-78
2022/06/12 09:42:42;;;;;;;11.07;3.45;;;24.90;99.40;;;;;;5009316;28;20051;-78
2022/06/12 09:45:41;;;;;;;9.60;2.67;;;24.90;99.90;;;;;;5045599;28;20051;-78
2022/06/12 09:48:16;;;;;;;10.18;3.00;;;24.60;97.40;;;;;;5072170;28;20040;-77
2022/06/12 09:51:05;;;;;;;8.25;2.80;;;24.30;99.90;;;;;;5054039;28;20052;-79
2022/06/12 09:53:48;;;;;;;10.35;2.53;;;24.60;99.90;;;;;;5079146;28;20488;-78
2022/06/12 09:56:20;;;;;;;8.93;2.17;;;24.30;98.20;;;;;;5064493;28;20063;-77
2022/06/12 09:59:07;;;;;;;7.50;2.30;;;24.60;99.90;;;;;;5058949;28;20165;-76
2022/06/12 10:01:39;;;;;;;9.68;2.60;;;25.10;93.10;;;;;;5050121;28;20443;-78
2022/06/12 10:04:45;;;;;;;7.10;2.80;;;25.00;97.30;;;;;;5029053;28;20055;-77
2022/06/12 10:07:16;;;;;;;8.10;2.17;;;25.10;93.50;;;;;;5052941;28;20071;-77
2022/06/12 10:10:03;;;;;;;7.95;2.75;;;24.80;97.60;;;;;;5044956;28;20092;-77
2022/06/12 10:12:38;;;;;;;5.80;1.92;;;25.10;92.00;;;;;;5061627;28;20062;-78
2022/06/12 10:15:32;;;;;;;8.55;2.45;;;24.80;79.50;;;;;;5021635;28;20494;-76
2022/06/12 10:18:10;;;;;;;8.57;2.45;;;24.70;84.60;;;;;;5055713;28;20055;-77
2022/06/12 10:20:48;;;;;;;8.25;2.15;;;24.50;90.10;;;;;;5044905;28;20047;-78
2022/06/12 10:23:14;;;;;;;6.50;1.73;;;24.30;89.00;;;;;;5080136;28;20054;-77
2022/06/12 10:25:51;;;;;;;6.03;2.17;;;24.00;94.40;;;;;;5055419;28;20040;-77
2022/06/12 10:28:20;;;;;;;5.60;2.15;;;23.30;95.40;;;;;;5062872;28;20549;-78
2022/06/12 10:31:03;;;;;;;6.07;2.25;;;23.10;96.80;;;;;;5058593;28;20056;-78
2022/06/12 10:34:02;;;;;;;7.43;2.45;;;23.60;97.00;;;;;;5030965;28;20055;-78
2022/06/12 10:36:33;;;;;;;9.20;2.45;;;23.60;94.60;;;;;;5080967;28;20484;-78
2022/06/12 10:39:26;;;;;;;8.82;2.50;;;24.20;95.50;;;;;;5080354;28;20503;-78
2022/06/12 10:41:59;;;;;;;8.55;2.20;;;24.80;91.00;;;;;;5076082;28;20163;-79
2022/06/12 10:44:42;;;;;;;6.78;2.15;;;25.00;84.70;;;;;;5081371;28;20052;-78
2022/06/12 10:47:24;;;;;;;7.22;2.40;;;25.40;80.10;;;;;;5042670;28;20051;-79
2022/06/12 10:50:06;;;;;;;6.10;1.92;;;25.20;76.40;;;;;;5030397;28;20446;-79
2022/06/12 10:52:33;;;;;;;8.30;2.30;;;25.00;75.40;;;;;;5030397;28;20919;-80
2022/06/12 10:55:00;;;;;;;4.78;2.05;;;24.40;91.00;;;;;;5029304;28;20053;-79
2022/06/12 10:57:43;;;;;;;7.28;1.90;;;24.10;90.70;;;;;;5058006;28;20055;-78
2022/06/12 11:00:19;;;;;;;7.25;2.35;;;24.50;95.50;;;;;;5061494;28;20103;-78
2022/06/12 11:03:06;;;;;;;7.57;2.40;;;24.80;92.20;;;;;;5057775;28;20040;-78
2022/06/12 11:05:55;;;;;;;5.80;2.20;;;25.30;87.90;;;;;;5059789;28;20162;-78
2022/06/12 11:08:53;;;;;;;8.52;2.47;;;25.50;61.40;;;;;;5038345;28;20127;-78
2022/06/12 11:11:45;;;;;;;7.35;2.70;;;25.80;68.30;;;;;;5071187;28;20733;-78
2022/06/12 11:14:23;;;;;;;7.22;2.20;;;25.50;63.60;;;;;;5075835;28;20048;-78
2022/06/12 11:17:05;;;;;;;8.57;1.88;;;26.00;65.00;;;;;;5072633;28;20209;-78
2022/06/12 11:19:44;;;;;;;6.20;1.92;;;25.80;56.60;;;;;;5029433;28;20051;-78
2022/06/12 11:22:28;;;;;;;6.60;1.98;;;25.30;60.70;;;;;;5047206;28;20039;-78
2022/06/12 11:24:57;;;;;;;9.70;2.38;;;25.20;63.30;;;;;;5052241;28;20040;-78
2022/06/12 11:27:54;;;;;;;7.45;2.00;;;24.80;66.20;;;;;;5058113;28;20117;-78
2022/06/12 11:30:23;;;;;;;7.47;1.77;;;25.00;60.10;;;;;;5055932;28;20052;-78
2022/06/12 11:33:21;;;;;;;5.80;1.85;;;24.00;58.60;;;;;;5058723;28;20538;-78
2022/06/12 11:36:04;;;;;;;7.10;2.20;;;24.10;66.20;;;;;;5041519;28;20055;-78
2022/06/12 11:39:03;;;;;;;6.10;1.92;;;24.00;68.70;;;;;;5060400;28;20455;-78
2022/06/12 11:41:57;;;;;;;6.05;1.85;;;24.00;70.60;;;;;;5057912;28;20118;-78
2022/06/12 11:44:46;;;;;;;6.30;1.90;;;24.10;77.30;;;;;;5065303;28;20039;-78
2022/06/12 11:47:39;;;;;;;4.82;1.63;;;24.40;64.30;;;;;;5078383;28;20040;-76
2022/06/12 11:50:05;;;;;;;7.13;1.90;;;24.00;61.90;;;;;;5091301;28;20097;-78
2022/06/12 11:52:35;;;;;;;5.45;1.52;;;23.70;62.20;;;;;;5023458;28;20039;-78
2022/06/12 11:55:24;;;;;;;6.32;2.25;;;23.50;75.80;;;;;;5060722;28;20564;-78
2022/06/12 11:57:55;;;;;;;6.25;1.77;;;23.90;71.80;;;;;;5096430;28;20052;-77
2022/06/12 12:00:51;;;;;;;5.95;2.20;;;24.10;70.30;;;;;;5059052;28;20144;-80
2022/06/12 12:03:30;;;;;;;6.60;1.70;;;24.70;62.40;;;;;;5076500;28;20040;-78
2022/06/12 12:06:11;;;;;;;7.47;1.85;;;24.60;61.90;;;;;;5060110;28;20056;-79
2022/06/12 12:08:48;;;;;;;6.05;2.00;;;24.10;61.20;;;;;;5061609;28;20119;-78
2022/06/12 12:11:25;;;;;;;7.20;1.92;;;24.20;57.70;;;;;;5060659;28;20083;-78
2022/06/12 12:13:55;;;;;;;6.43;1.63;;;24.40;60.90;;;;;;5061558;28;20138;-76
2022/06/12 12:16:35;;;;;;;9.80;4.80;;;25.20;62.80;;;;;;5060367;28;20048;-80
2022/06/12 12:19:13;;;;;;;6.72;1.98;;;25.90;58.60;;;;;;5060033;28;20063;-80
2022/06/12 12:21:42;;;;;;;6.60;2.50;;;25.90;53.40;;;;;;5078304;28;20045;-80
2022/06/12 12:24:30;;;;;;;6.35;1.80;;;25.30;52.30;;;;;;5089491;28;20622;-81
2022/06/12 12:27:01;;;;;;;6.28;1.58;;;25.40;53.80;;;;;;5063124;28;20155;-81
2022/06/12 12:29:34;;;;;;;6.28;2.10;;;25.20;54.10;;;;;;5045163;28;20098;-80
2022/06/12 12:32:04;;;;;;;6.03;1.83;;;24.90;56.10;;;;;;5039683;28;20723;-80
2022/06/12 12:34:32;;;;;;;5.18;1.88;;;24.80;59.10;;;;;;5059113;28;20052;-80
2022/06/12 12:41:11;;;;;;;6.25;2.00;;;25.00;59.90;;;;;;5048640;28;20158;-80
2022/06/12 12:43:06;;;;;;;3.80;1.67;;;25.30;62.90;;;;;;5043702;28;20497;-80
2022/06/12 12:45:37;;;;;;;11.07;2.58;;;25.40;53.90;;;;;;5064688;28;20121;-80
2022/06/12 12:48:09;;;;;;;4.78;1.80;;;25.10;56.40;;;;;;5058664;28;20443;-80
2022/06/12 12:50:54;;;;;;;5.22;1.80;;;24.60;59.40;;;;;;5045218;28;20051;-80
2022/06/12 12:53:28;;;;;;;4.22;1.73;;;24.70;57.40;;;;;;5043768;28;20147;-80
2022/06/12 12:56:08;;;;;;;5.40;1.65;;;24.20;55.00;;;;;;5087918;28;20055;-80
2022/06/12 12:58:39;;;;;;;6.20;2.33;;;24.60;57.20;;;;;;5061102;28;20059;-80
2022/06/12 13:01:27;;;;;;;6.45;1.90;;;24.20;62.00;;;;;;5059293;28;20051;-80
2022/06/12 13:04:02;;;;;;;9.80;2.20;;;23.60;70.80;;;;;;5048687;28;20040;-78
2022/06/12 13:06:47;;;;;;;8.10;2.42;;;23.70;91.00;;;;;;5064899;28;20044;-79
2022/06/12 13:09:30;;;;;;;5.57;2.25;;;23.90;86.70;;;;;;5064050;28;20058;-79
2022/06/12 13:11:56;;;;;;;4.45;1.63;;;23.80;84.50;;;;;;5046521;28;20048;-79
2022/06/12 13:14:32;;;;;;;8.38;2.50;;;24.00;90.80;;;;;;5030866;28;20044;-79
2022/06/12 13:17:27;;;;;;;6.63;2.17;;;24.70;86.00;;;;;;5063416;28;20091;-79
2022/06/12 13:20:17;;;;;;;9.18;2.30;;;25.40;67.90;;;;;;5048579;28;20051;-79
2022/06/12 13:23:14;;;;;;;7.45;2.65;;;24.70;63.20;;;;;;5064117;28;20059;-79
2022/06/12 13:25:43;;;;;;;8.05;2.70;;;24.00;75.50;;;;;;5044459;28;20047;-79
2022/06/12 13:28:39;;;;;;;11.07;2.40;;;24.80;80.30;;;;;;5060813;28;20759;-80
2022/06/12 13:31:17;;;;;;;7.13;2.33;;;24.80;68.90;;;;;;5051741;28;20048;-80